sensor_id;sensor_type;location;lat;lon;timestamp;P1;durP1;ratioP1;P2;durP2;ratioP2
18752;SDS011;9505;50.882;5.350;2022-10-31T00:00:18;41.22;;;12.38;;
18752;SDS011;9505;50.882;5.350;2022-10-31T00:02:43;37.75;;;12.38;;
18752;SDS011;9505;50.882;5.350;2022-10-31T00:05:09;41.75;;;12.68;;
18752;SDS011;9505;50.882;5.350;2022-10-31T00:07:35;35.20;;;11.93;;
18752;SDS011;9505;50.882;5.350;2022-10-31T00:10:00;41.25;;;12.57;;
18752;SDS011;9505;50.882;5.350;2022-10-31T00:12:26;36.63;;;10.88;;
18752;SDS011;9505;50.882;5.350;2022-10-31T00:14:51;29.30;;;11.40;;
18752;SDS011;9505;50.882;5.350;2022-10-31T00:17:17;36.20;;;11.55;;
18752;SDS011;9505;50.882;5.350;2022-10-31T00:19:42;38.05;;;11.07;;
18752;SDS011;9505;50.882;5.350;2022-10-31T00:22:08;33.42;;;12.38;;
18752;SDS011;9505;50.882;5.350;2022-10-31T00:24:34;36.70;;;11.70;;
18752;SDS011;9505;50.882;5.350;2022-10-31T00:26:59;40.55;;;11.90;;
18752;SDS011;9505;50.882;5.350;2022-10-31T00:29:25;39.70;;;12.00;;
18752;SDS011;9505;50.882;5.350;2022-10-31T00:31:51;37.45;;;12.40;;
18752;SDS011;9505;50.882;5.350;2022-10-31T00:34:17;38.33;;;12.00;;
18752;SDS011;9505;50.882;5.350;2022-10-31T00:36:43;41.03;;;13.07;;
18752;SDS011;9505;50.882;5.350;2022-10-31T00:39:09;34.47;;;12.90;;
18752;SDS011;9505;50.882;5.350;2022-10-31T00:41:34;38.83;;;12.95;;
18752;SDS011;9505;50.882;5.350;2022-10-31T00:44:00;37.63;;;11.73;;
18752;SDS011;9505;50.882;5.350;2022-10-31T00:46:25;36.15;;;11.82;;
18752;SDS011;9505;50.882;5.350;2022-10-31T00:48:51;35.38;;;12.32;;
18752;SDS011;9505;50.882;5.350;2022-10-31T00:51:20;39.13;;;11.80;;
18752;SDS011;9505;50.882;5.350;2022-10-31T00:53:46;32.38;;;12.38;;
18752;SDS011;9505;50.882;5.350;2022-10-31T00:56:11;39.92;;;12.85;;
18752;SDS011;9505;50.882;5.350;2022-10-31T00:58:37;37.45;;;12.75;;
18752;SDS011;9505;50.882;5.350;2022-10-31T01:01:03;56.65;;;14.70;;
18752;SDS011;9505;50.882;5.350;2022-10-31T01:03:30;38.55;;;12.32;;
18752;SDS011;9505;50.882;5.350;2022-10-31T01:08:43;33.17;;;11.05;;
18752;SDS011;9505;50.882;5.350;2022-10-31T01:11:21;52.22;;;12.68;;
18752;SDS011;9505;50.882;5.350;2022-10-31T01:13:50;37.40;;;11.55;;
18752;SDS011;9505;50.882;5.350;2022-10-31T01:16:17;38.13;;;11.63;;
18752;SDS011;9505;50.882;5.350;2022-10-31T01:18:45;37.15;;;12.32;;
18752;SDS011;9505;50.882;5.350;2022-10-31T01:23:40;42.08;;;11.82;;
18752;SDS011;9505;50.882;5.350;2022-10-31T01:28:37;37.05;;;11.85;;
18752;SDS011;9505;50.882;5.350;2022-10-31T01:31:08;34.13;;;11.23;;
18752;SDS011;9505;50.882;5.350;2022-10-31T01:33:35;32.90;;;11.43;;
18752;SDS011;9505;50.882;5.350;2022-10-31T01:36:01;44.80;;;13.65;;
18752;SDS011;9505;50.882;5.350;2022-10-31T01:38:36;45.75;;;13.35;;
18752;SDS011;9505;50.882;5.350;2022-10-31T01:41:01;35.15;;;11.82;;
18752;SDS011;9505;50.882;5.350;2022-10-31T01:46:17;49.65;;;13.00;;
18752;SDS011;9505;50.882;5.350;2022-10-31T01:48:49;37.20;;;11.40;;
18752;SDS011;9505;50.882;5.350;2022-10-31T01:51:16;36.80;;;11.07;;
18752;SDS011;9505;50.882;5.350;2022-10-31T01:53:45;42.28;;;12.20;;
18752;SDS011;9505;50.882;5.350;2022-10-31T01:56:12;40.92;;;13.18;;
18752;SDS011;9505;50.882;5.350;2022-10-31T01:58:40;40.58;;;13.60;;
18752;SDS011;9505;50.882;5.350;2022-10-31T02:01:07;46.30;;;13.35;;
18752;SDS011;9505;50.882;5.350;2022-10-31T02:03:33;38.83;;;11.10;;
18752;SDS011;9505;50.882;5.350;2022-10-31T02:05:59;38.35;;;11.98;;
18752;SDS011;9505;50.882;5.350;2022-10-31T02:08:28;39.08;;;13.23;;
18752;SDS011;9505;50.882;5.350;2022-10-31T02:10:56;38.10;;;12.18;;
18752;SDS011;9505;50.882;5.350;2022-10-31T02:13:23;37.00;;;11.60;;
18752;SDS011;9505;50.882;5.350;2022-10-31T02:15:51;30.77;;;10.27;;
18752;SDS011;9505;50.882;5.350;2022-10-31T02:18:18;44.97;;;11.35;;
18752;SDS011;9505;50.882;5.350;2022-10-31T02:20:48;43.33;;;12.70;;
18752;SDS011;9505;50.882;5.350;2022-10-31T02:23:29;39.47;;;12.15;;
18752;SDS011;9505;50.882;5.350;2022-10-31T02:34:34;39.05;;;12.02;;
18752;SDS011;9505;50.882;5.350;2022-10-31T02:37:16;36.42;;;12.52;;
18752;SDS011;9505;50.882;5.350;2022-10-31T02:45:26;39.13;;;11.35;;
18752;SDS011;9505;50.882;5.350;2022-10-31T02:48:21;37.45;;;11.48;;
18752;SDS011;9505;50.882;5.350;2022-10-31T02:50:56;34.50;;;11.77;;
18752;SDS011;9505;50.882;5.350;2022-10-31T02:53:24;38.83;;;12.70;;
18752;SDS011;9505;50.882;5.350;2022-10-31T02:58:31;38.53;;;12.27;;
18752;SDS011;9505;50.882;5.350;2022-10-31T03:07:00;32.88;;;11.32;;
18752;SDS011;9505;50.882;5.350;2022-10-31T03:10:01;40.25;;;11.02;;
18752;SDS011;9505;50.882;5.350;2022-10-31T03:15:21;33.35;;;11.73;;
18752;SDS011;9505;50.882;5.350;2022-10-31T03:17:56;39.78;;;11.65;;
18752;SDS011;9505;50.882;5.350;2022-10-31T03:20:36;36.60;;;10.68;;
18752;SDS011;9505;50.882;5.350;2022-10-31T03:23:06;52.03;;;12.52;;
18752;SDS011;9505;50.882;5.350;2022-10-31T03:25:36;47.78;;;12.73;;
18752;SDS011;9505;50.882;5.350;2022-10-31T03:28:02;34.42;;;11.65;;
18752;SDS011;9505;50.882;5.350;2022-10-31T03:30:30;29.38;;;11.65;;
18752;SDS011;9505;50.882;5.350;2022-10-31T03:32:58;39.03;;;11.82;;
18752;SDS011;9505;50.882;5.350;2022-10-31T03:35:27;30.48;;;11.77;;
18752;SDS011;9505;50.882;5.350;2022-10-31T03:37:55;31.73;;;11.20;;
18752;SDS011;9505;50.882;5.350;2022-10-31T03:40:24;37.55;;;12.40;;
18752;SDS011;9505;50.882;5.350;2022-10-31T03:42:59;36.60;;;12.27;;
18752;SDS011;9505;50.882;5.350;2022-10-31T03:45:29;38.03;;;11.63;;
18752;SDS011;9505;50.882;5.350;2022-10-31T03:47:56;37.05;;;11.90;;
18752;SDS011;9505;50.882;5.350;2022-10-31T03:50:25;39.97;;;13.07;;
18752;SDS011;9505;50.882;5.350;2022-10-31T03:52:57;46.20;;;12.27;;
18752;SDS011;9505;50.882;5.350;2022-10-31T03:58:06;40.60;;;12.43;;
18752;SDS011;9505;50.882;5.350;2022-10-31T04:00:40;38.08;;;12.15;;
18752;SDS011;9505;50.882;5.350;2022-10-31T04:03:09;36.38;;;11.60;;
18752;SDS011;9505;50.882;5.350;2022-10-31T04:05:52;40.53;;;12.65;;
18752;SDS011;9505;50.882;5.350;2022-10-31T04:08:20;44.45;;;12.30;;
18752;SDS011;9505;50.882;5.350;2022-10-31T04:10:49;35.00;;;11.90;;
18752;SDS011;9505;50.882;5.350;2022-10-31T04:13:17;37.85;;;12.25;;
18752;SDS011;9505;50.882;5.350;2022-10-31T04:15:48;38.45;;;11.15;;
18752;SDS011;9505;50.882;5.350;2022-10-31T04:18:17;38.88;;;11.13;;
18752;SDS011;9505;50.882;5.350;2022-10-31T04:20:42;42.55;;;13.27;;
18752;SDS011;9505;50.882;5.350;2022-10-31T04:23:18;34.75;;;11.40;;
18752;SDS011;9505;50.882;5.350;2022-10-31T04:25:45;38.83;;;12.57;;
18752;SDS011;9505;50.882;5.350;2022-10-31T04:28:11;33.30;;;10.13;;
18752;SDS011;9505;50.882;5.350;2022-10-31T04:30:37;34.70;;;11.32;;
18752;SDS011;9505;50.882;5.350;2022-10-31T04:33:02;35.83;;;11.60;;
18752;SDS011;9505;50.882;5.350;2022-10-31T04:35:28;33.60;;;11.15;;
18752;SDS011;9505;50.882;5.350;2022-10-31T04:37:53;35.90;;;11.02;;
18752;SDS011;9505;50.882;5.350;2022-10-31T04:40:19;38.00;;;11.25;;
18752;SDS011;9505;50.882;5.350;2022-10-31T04:42:44;32.53;;;11.38;;
18752;SDS011;9505;50.882;5.350;2022-10-31T04:45:10;30.05;;;10.05;;
18752;SDS011;9505;50.882;5.350;2022-10-31T04:47:35;37.13;;;12.07;;
18752;SDS011;9505;50.882;5.350;2022-10-31T04:50:02;28.45;;;10.20;;
18752;SDS011;9505;50.882;5.350;2022-10-31T04:52:28;36.65;;;10.57;;
18752;SDS011;9505;50.882;5.350;2022-10-31T04:54:53;30.10;;;9.98;;
18752;SDS011;9505;50.882;5.350;2022-10-31T04:57:19;28.15;;;9.93;;
18752;SDS011;9505;50.882;5.350;2022-10-31T04:59:44;40.92;;;12.10;;
18752;SDS011;9505;50.882;5.350;2022-10-31T05:02:10;43.20;;;14.13;;
18752;SDS011;9505;50.882;5.350;2022-10-31T05:04:35;44.10;;;11.60;;
18752;SDS011;9505;50.882;5.350;2022-10-31T05:07:01;52.25;;;13.65;;
18752;SDS011;9505;50.882;5.350;2022-10-31T05:09:26;41.47;;;12.20;;
18752;SDS011;9505;50.882;5.350;2022-10-31T05:11:52;37.60;;;11.45;;
18752;SDS011;9505;50.882;5.350;2022-10-31T05:14:18;34.35;;;11.82;;
18752;SDS011;9505;50.882;5.350;2022-10-31T05:16:43;43.90;;;12.05;;
18752;SDS011;9505;50.882;5.350;2022-10-31T05:19:09;36.20;;;11.77;;
18752;SDS011;9505;50.882;5.350;2022-10-31T05:21:34;42.45;;;10.95;;
18752;SDS011;9505;50.882;5.350;2022-10-31T05:24:00;42.47;;;12.90;;
18752;SDS011;9505;50.882;5.350;2022-10-31T05:26:25;33.35;;;11.18;;
18752;SDS011;9505;50.882;5.350;2022-10-31T05:28:51;39.72;;;12.13;;
18752;SDS011;9505;50.882;5.350;2022-10-31T05:31:17;34.97;;;12.07;;
18752;SDS011;9505;50.882;5.350;2022-10-31T05:33:42;36.08;;;10.68;;
18752;SDS011;9505;50.882;5.350;2022-10-31T05:36:08;33.28;;;10.32;;
18752;SDS011;9505;50.882;5.350;2022-10-31T05:38:33;32.55;;;11.80;;
18752;SDS011;9505;50.882;5.350;2022-10-31T05:40:59;38.63;;;12.02;;
18752;SDS011;9505;50.882;5.350;2022-10-31T05:43:26;38.05;;;11.38;;
18752;SDS011;9505;50.882;5.350;2022-10-31T05:45:52;47.50;;;11.88;;
18752;SDS011;9505;50.882;5.350;2022-10-31T05:48:18;38.28;;;10.85;;
18752;SDS011;9505;50.882;5.350;2022-10-31T05:50:44;42.13;;;12.35;;
18752;SDS011;9505;50.882;5.350;2022-10-31T05:53:12;33.95;;;11.02;;
18752;SDS011;9505;50.882;5.350;2022-10-31T05:55:37;36.40;;;11.70;;
18752;SDS011;9505;50.882;5.350;2022-10-31T05:58:04;40.03;;;12.38;;
18752;SDS011;9505;50.882;5.350;2022-10-31T06:00:29;41.90;;;11.85;;
18752;SDS011;9505;50.882;5.350;2022-10-31T06:02:59;47.95;;;12.77;;
18752;SDS011;9505;50.882;5.350;2022-10-31T06:05:29;39.92;;;11.40;;
18752;SDS011;9505;50.882;5.350;2022-10-31T06:07:56;47.63;;;13.52;;
18752;SDS011;9505;50.882;5.350;2022-10-31T06:10:22;42.00;;;12.95;;
18752;SDS011;9505;50.882;5.350;2022-10-31T06:12:48;44.67;;;12.75;;
18752;SDS011;9505;50.882;5.350;2022-10-31T06:15:14;39.03;;;12.05;;
18752;SDS011;9505;50.882;5.350;2022-10-31T06:17:40;50.05;;;12.48;;
18752;SDS011;9505;50.882;5.350;2022-10-31T06:20:06;38.95;;;11.43;;
18752;SDS011;9505;50.882;5.350;2022-10-31T06:22:32;39.97;;;12.45;;
18752;SDS011;9505;50.882;5.350;2022-10-31T06:24:58;42.63;;;11.65;;
18752;SDS011;9505;50.882;5.350;2022-10-31T06:27:24;43.10;;;12.23;;
18752;SDS011;9505;50.882;5.350;2022-10-31T06:29:50;47.33;;;13.68;;
18752;SDS011;9505;50.882;5.350;2022-10-31T06:32:17;45.65;;;12.45;;
18752;SDS011;9505;50.882;5.350;2022-10-31T06:34:43;39.22;;;12.05;;
18752;SDS011;9505;50.882;5.350;2022-10-31T06:37:09;42.33;;;12.73;;
18752;SDS011;9505;50.882;5.350;2022-10-31T06:39:36;43.17;;;12.68;;
18752;SDS011;9505;50.882;5.350;2022-10-31T06:42:03;46.95;;;13.07;;
18752;SDS011;9505;50.882;5.350;2022-10-31T06:44:29;48.78;;;12.60;;
18752;SDS011;9505;50.882;5.350;2022-10-31T06:46:55;47.05;;;13.48;;
18752;SDS011;9505;50.882;5.350;2022-10-31T06:49:21;42.42;;;11.50;;
18752;SDS011;9505;50.882;5.350;2022-10-31T06:51:47;53.35;;;13.70;;
18752;SDS011;9505;50.882;5.350;2022-10-31T06:54:13;44.13;;;12.48;;
18752;SDS011;9505;50.882;5.350;2022-10-31T06:56:39;43.45;;;13.23;;
18752;SDS011;9505;50.882;5.350;2022-10-31T06:59:05;47.42;;;13.73;;
18752;SDS011;9505;50.882;5.350;2022-10-31T07:01:30;48.58;;;13.88;;
18752;SDS011;9505;50.882;5.350;2022-10-31T07:03:56;43.35;;;11.90;;
18752;SDS011;9505;50.882;5.350;2022-10-31T07:06:22;37.45;;;12.10;;
18752;SDS011;9505;50.882;5.350;2022-10-31T07:08:47;42.17;;;12.50;;
18752;SDS011;9505;50.882;5.350;2022-10-31T07:11:13;58.72;;;15.55;;
18752;SDS011;9505;50.882;5.350;2022-10-31T07:13:39;44.25;;;12.93;;
18752;SDS011;9505;50.882;5.350;2022-10-31T07:16:05;65.95;;;15.60;;
18752;SDS011;9505;50.882;5.350;2022-10-31T07:18:31;50.65;;;13.32;;
18752;SDS011;9505;50.882;5.350;2022-10-31T07:20:57;45.80;;;14.10;;
18752;SDS011;9505;50.882;5.350;2022-10-31T07:23:23;50.20;;;15.30;;
18752;SDS011;9505;50.882;5.350;2022-10-31T07:25:53;58.03;;;15.25;;
18752;SDS011;9505;50.882;5.350;2022-10-31T07:28:20;45.00;;;14.27;;
18752;SDS011;9505;50.882;5.350;2022-10-31T07:30:49;52.78;;;15.27;;
18752;SDS011;9505;50.882;5.350;2022-10-31T07:33:18;57.58;;;15.30;;
18752;SDS011;9505;50.882;5.350;2022-10-31T07:35:44;48.78;;;14.70;;
18752;SDS011;9505;50.882;5.350;2022-10-31T07:38:11;49.42;;;14.55;;
18752;SDS011;9505;50.882;5.350;2022-10-31T07:40:38;49.65;;;14.77;;
18752;SDS011;9505;50.882;5.350;2022-10-31T07:43:04;57.67;;;15.55;;
18752;SDS011;9505;50.882;5.350;2022-10-31T07:45:30;51.13;;;15.32;;
18752;SDS011;9505;50.882;5.350;2022-10-31T07:47:56;49.78;;;13.65;;
18752;SDS011;9505;50.882;5.350;2022-10-31T07:50:23;58.97;;;16.45;;
18752;SDS011;9505;50.882;5.350;2022-10-31T07:53:13;55.05;;;15.50;;
18752;SDS011;9505;50.882;5.350;2022-10-31T07:55:40;59.97;;;17.25;;
18752;SDS011;9505;50.882;5.350;2022-10-31T07:58:06;55.58;;;17.02;;
18752;SDS011;9505;50.882;5.350;2022-10-31T08:00:36;68.22;;;18.52;;
18752;SDS011;9505;50.882;5.350;2022-10-31T08:03:05;66.38;;;17.00;;
18752;SDS011;9505;50.882;5.350;2022-10-31T08:05:32;51.20;;;15.38;;
18752;SDS011;9505;50.882;5.350;2022-10-31T08:07:58;52.78;;;16.58;;
18752;SDS011;9505;50.882;5.350;2022-10-31T08:10:25;57.97;;;17.33;;
18752;SDS011;9505;50.882;5.350;2022-10-31T08:12:58;57.50;;;16.88;;
18752;SDS011;9505;50.882;5.350;2022-10-31T08:15:27;78.50;;;20.38;;
18752;SDS011;9505;50.882;5.350;2022-10-31T08:17:53;62.28;;;18.70;;
18752;SDS011;9505;50.882;5.350;2022-10-31T08:20:19;70.30;;;21.42;;
18752;SDS011;9505;50.882;5.350;2022-10-31T08:25:21;77.15;;;21.42;;
18752;SDS011;9505;50.882;5.350;2022-10-31T08:27:52;70.88;;;22.27;;
18752;SDS011;9505;50.882;5.350;2022-10-31T08:30:19;79.25;;;24.15;;
18752;SDS011;9505;50.882;5.350;2022-10-31T08:32:45;75.65;;;23.83;;
18752;SDS011;9505;50.882;5.350;2022-10-31T08:35:11;68.55;;;22.48;;
18752;SDS011;9505;50.882;5.350;2022-10-31T08:37:37;78.25;;;23.65;;
18752;SDS011;9505;50.882;5.350;2022-10-31T08:40:03;85.00;;;24.40;;
18752;SDS011;9505;50.882;5.350;2022-10-31T08:42:29;76.22;;;23.73;;
18752;SDS011;9505;50.882;5.350;2022-10-31T08:44:54;73.28;;;23.70;;
18752;SDS011;9505;50.882;5.350;2022-10-31T08:47:20;86.18;;;22.75;;
18752;SDS011;9505;50.882;5.350;2022-10-31T08:49:45;85.65;;;23.23;;
18752;SDS011;9505;50.882;5.350;2022-10-31T08:52:11;75.25;;;24.42;;
18752;SDS011;9505;50.882;5.350;2022-10-31T08:54:37;65.22;;;21.90;;
18752;SDS011;9505;50.882;5.350;2022-10-31T08:57:02;72.80;;;23.52;;
18752;SDS011;9505;50.882;5.350;2022-10-31T08:59:28;82.35;;;24.23;;
18752;SDS011;9505;50.882;5.350;2022-10-31T09:01:53;71.28;;;22.63;;
18752;SDS011;9505;50.882;5.350;2022-10-31T09:04:19;78.00;;;22.73;;
18752;SDS011;9505;50.882;5.350;2022-10-31T09:06:44;77.30;;;22.23;;
18752;SDS011;9505;50.882;5.350;2022-10-31T09:09:10;70.38;;;21.45;;
18752;SDS011;9505;50.882;5.350;2022-10-31T09:11:36;67.95;;;20.83;;
18752;SDS011;9505;50.882;5.350;2022-10-31T09:14:01;71.72;;;20.55;;
18752;SDS011;9505;50.882;5.350;2022-10-31T09:16:27;56.60;;;16.85;;
18752;SDS011;9505;50.882;5.350;2022-10-31T09:18:52;51.40;;;16.95;;
18752;SDS011;9505;50.882;5.350;2022-10-31T09:21:18;55.13;;;17.70;;
18752;SDS011;9505;50.882;5.350;2022-10-31T09:23:43;49.03;;;16.02;;
18752;SDS011;9505;50.882;5.350;2022-10-31T09:26:09;43.63;;;15.43;;
18752;SDS011;9505;50.882;5.350;2022-10-31T09:28:34;49.75;;;15.05;;
18752;SDS011;9505;50.882;5.350;2022-10-31T09:31:00;50.88;;;14.93;;
18752;SDS011;9505;50.882;5.350;2022-10-31T09:33:26;37.72;;;14.30;;
18752;SDS011;9505;50.882;5.350;2022-10-31T09:35:51;48.03;;;15.00;;
18752;SDS011;9505;50.882;5.350;2022-10-31T09:38:18;41.28;;;13.65;;
18752;SDS011;9505;50.882;5.350;2022-10-31T09:40:55;41.35;;;13.88;;
18752;SDS011;9505;50.882;5.350;2022-10-31T09:52:00;41.30;;;15.35;;
18752;SDS011;9505;50.882;5.350;2022-10-31T09:57:15;45.22;;;14.30;;
18752;SDS011;9505;50.882;5.350;2022-10-31T09:59:44;55.60;;;14.50;;
18752;SDS011;9505;50.882;5.350;2022-10-31T10:07:30;36.30;;;12.50;;
18752;SDS011;9505;50.882;5.350;2022-10-31T10:10:14;32.35;;;12.48;;
18752;SDS011;9505;50.882;5.350;2022-10-31T10:12:48;39.50;;;12.77;;
18752;SDS011;9505;50.882;5.350;2022-10-31T10:16:07;50.58;;;14.45;;
18752;SDS011;9505;50.882;5.350;2022-10-31T10:21:17;40.58;;;12.23;;
18752;SDS011;9505;50.882;5.350;2022-10-31T10:26:36;43.20;;;12.55;;
18752;SDS011;9505;50.882;5.350;2022-10-31T10:31:55;41.63;;;11.02;;
18752;SDS011;9505;50.882;5.350;2022-10-31T10:34:27;46.92;;;13.32;;
18752;SDS011;9505;50.882;5.350;2022-10-31T10:37:09;36.50;;;11.55;;
18752;SDS011;9505;50.882;5.350;2022-10-31T10:39:41;26.90;;;11.05;;
18752;SDS011;9505;50.882;5.350;2022-10-31T10:42:12;44.65;;;12.30;;
18752;SDS011;9505;50.882;5.350;2022-10-31T10:44:57;37.53;;;11.43;;
18752;SDS011;9505;50.882;5.350;2022-10-31T10:47:43;35.55;;;11.65;;
18752;SDS011;9505;50.882;5.350;2022-10-31T10:50:20;46.03;;;12.80;;
18752;SDS011;9505;50.882;5.350;2022-10-31T10:52:50;38.08;;;12.50;;
18752;SDS011;9505;50.882;5.350;2022-10-31T10:55:32;33.05;;;11.05;;
18752;SDS011;9505;50.882;5.350;2022-10-31T10:58:18;36.95;;;11.90;;
18752;SDS011;9505;50.882;5.350;2022-10-31T11:00:44;37.20;;;12.25;;
18752;SDS011;9505;50.882;5.350;2022-10-31T11:03:11;37.30;;;12.85;;
18752;SDS011;9505;50.882;5.350;2022-10-31T11:08:11;30.92;;;11.02;;
18752;SDS011;9505;50.882;5.350;2022-10-31T11:10:56;35.15;;;11.48;;
18752;SDS011;9505;50.882;5.350;2022-10-31T11:13:40;36.63;;;11.45;;
18752;SDS011;9505;50.882;5.350;2022-10-31T11:16:08;36.55;;;11.32;;
18752;SDS011;9505;50.882;5.350;2022-10-31T11:18:39;36.85;;;11.77;;
18752;SDS011;9505;50.882;5.350;2022-10-31T11:21:17;28.55;;;11.00;;
18752;SDS011;9505;50.882;5.350;2022-10-31T11:24:02;33.33;;;11.15;;
18752;SDS011;9505;50.882;5.350;2022-10-31T11:26:33;38.88;;;10.98;;
18752;SDS011;9505;50.882;5.350;2022-10-31T11:29:00;30.15;;;10.77;;
18752;SDS011;9505;50.882;5.350;2022-10-31T11:31:29;29.10;;;11.00;;
18752;SDS011;9505;50.882;5.350;2022-10-31T11:34:05;40.33;;;11.25;;
18752;SDS011;9505;50.882;5.350;2022-10-31T11:36:41;41.70;;;10.93;;
18752;SDS011;9505;50.882;5.350;2022-10-31T11:39:17;38.75;;;11.07;;
18752;SDS011;9505;50.882;5.350;2022-10-31T11:41:46;44.85;;;11.95;;
18752;SDS011;9505;50.882;5.350;2022-10-31T11:46:56;33.28;;;11.10;;
18752;SDS011;9505;50.882;5.350;2022-10-31T11:52:06;33.67;;;11.18;;
18752;SDS011;9505;50.882;5.350;2022-10-31T11:54:53;29.00;;;9.73;;
18752;SDS011;9505;50.882;5.350;2022-10-31T11:57:25;51.53;;;12.63;;
18752;SDS011;9505;50.882;5.350;2022-10-31T11:59:56;35.28;;;10.48;;
18752;SDS011;9505;50.882;5.350;2022-10-31T12:02:24;38.05;;;11.25;;
18752;SDS011;9505;50.882;5.350;2022-10-31T12:04:53;38.40;;;10.65;;
18752;SDS011;9505;50.882;5.350;2022-10-31T12:07:21;28.83;;;10.35;;
18752;SDS011;9505;50.882;5.350;2022-10-31T12:09:48;36.65;;;11.10;;
18752;SDS011;9505;50.882;5.350;2022-10-31T12:23:24;41.58;;;11.85;;
18752;SDS011;9505;50.882;5.350;2022-10-31T12:39:49;42.72;;;10.10;;
18752;SDS011;9505;50.882;5.350;2022-10-31T12:45:09;56.47;;;12.75;;
18752;SDS011;9505;50.882;5.350;2022-10-31T12:50:22;39.42;;;10.30;;
18752;SDS011;9505;50.882;5.350;2022-10-31T12:59:35;45.28;;;10.88;;
18752;SDS011;9505;50.882;5.350;2022-10-31T13:08:05;37.33;;;9.35;;
18752;SDS011;9505;50.882;5.350;2022-10-31T13:11:08;30.50;;;8.70;;
18752;SDS011;9505;50.882;5.350;2022-10-31T13:13:40;32.75;;;8.80;;
18752;SDS011;9505;50.882;5.350;2022-10-31T13:16:28;35.72;;;8.82;;
18752;SDS011;9505;50.882;5.350;2022-10-31T13:19:00;30.50;;;8.27;;
18752;SDS011;9505;50.882;5.350;2022-10-31T13:21:40;32.10;;;7.60;;
18752;SDS011;9505;50.882;5.350;2022-10-31T13:24:16;29.02;;;8.05;;
18752;SDS011;9505;50.882;5.350;2022-10-31T13:29:27;30.67;;;7.65;;
18752;SDS011;9505;50.882;5.350;2022-10-31T13:31:59;21.25;;;6.75;;
18752;SDS011;9505;50.882;5.350;2022-10-31T13:34:31;24.08;;;7.47;;
18752;SDS011;9505;50.882;5.350;2022-10-31T13:43:06;26.52;;;7.50;;
18752;SDS011;9505;50.882;5.350;2022-10-31T13:45:47;48.08;;;9.65;;
18752;SDS011;9505;50.882;5.350;2022-10-31T13:50:40;32.47;;;8.40;;
18752;SDS011;9505;50.882;5.350;2022-10-31T14:01:03;48.08;;;10.13;;
18752;SDS011;9505;50.882;5.350;2022-10-31T14:04:01;21.70;;;6.63;;
18752;SDS011;9505;50.882;5.350;2022-10-31T14:09:04;61.50;;;11.52;;
18752;SDS011;9505;50.882;5.350;2022-10-31T14:11:31;27.80;;;7.38;;
18752;SDS011;9505;50.882;5.350;2022-10-31T14:13:57;29.48;;;7.43;;
18752;SDS011;9505;50.882;5.350;2022-10-31T14:19:02;70.25;;;12.20;;
18752;SDS011;9505;50.882;5.350;2022-10-31T14:21:36;68.15;;;12.68;;
18752;SDS011;9505;50.882;5.350;2022-10-31T14:26:52;41.88;;;9.85;;
18752;SDS011;9505;50.882;5.350;2022-10-31T14:29:30;45.72;;;10.68;;
18752;SDS011;9505;50.882;5.350;2022-10-31T14:32:05;38.13;;;9.15;;
18752;SDS011;9505;50.882;5.350;2022-10-31T14:45:49;54.33;;;10.13;;
18752;SDS011;9505;50.882;5.350;2022-10-31T14:51:30;52.83;;;8.98;;
18752;SDS011;9505;50.882;5.350;2022-10-31T14:54:07;56.20;;;9.98;;
18752;SDS011;9505;50.882;5.350;2022-10-31T14:56:46;56.15;;;10.43;;
18752;SDS011;9505;50.882;5.350;2022-10-31T14:59:15;65.28;;;10.52;;
18752;SDS011;9505;50.882;5.350;2022-10-31T15:02:19;57.88;;;10.20;;
18752;SDS011;9505;50.882;5.350;2022-10-31T15:04:52;63.00;;;10.68;;
18752;SDS011;9505;50.882;5.350;2022-10-31T15:10:03;54.78;;;10.43;;
18752;SDS011;9505;50.882;5.350;2022-10-31T15:15:10;55.22;;;10.13;;
18752;SDS011;9505;50.882;5.350;2022-10-31T15:17:41;51.20;;;10.23;;
18752;SDS011;9505;50.882;5.350;2022-10-31T15:20:12;43.90;;;8.40;;
18752;SDS011;9505;50.882;5.350;2022-10-31T15:22:44;52.38;;;9.75;;
18752;SDS011;9505;50.882;5.350;2022-10-31T15:25:18;71.25;;;11.05;;
18752;SDS011;9505;50.882;5.350;2022-10-31T15:27:45;59.45;;;9.27;;
18752;SDS011;9505;50.882;5.350;2022-10-31T15:30:19;74.82;;;10.38;;
18752;SDS011;9505;50.882;5.350;2022-10-31T15:32:49;63.88;;;9.65;;
18752;SDS011;9505;50.882;5.350;2022-10-31T15:35:20;67.57;;;9.50;;
18752;SDS011;9505;50.882;5.350;2022-10-31T15:37:54;63.15;;;9.13;;
18752;SDS011;9505;50.882;5.350;2022-10-31T15:40:21;44.42;;;6.63;;
18752;SDS011;9505;50.882;5.350;2022-10-31T15:42:53;27.88;;;5.72;;
18752;SDS011;9505;50.882;5.350;2022-10-31T15:45:23;20.67;;;3.88;;
18752;SDS011;9505;50.882;5.350;2022-10-31T15:50:40;17.80;;;3.80;;
18752;SDS011;9505;50.882;5.350;2022-10-31T15:53:17;52.60;;;7.22;;
18752;SDS011;9505;50.882;5.350;2022-10-31T15:55:51;54.33;;;7.38;;
18752;SDS011;9505;50.882;5.350;2022-10-31T15:58:20;63.20;;;7.65;;
18752;SDS011;9505;50.882;5.350;2022-10-31T16:01:00;45.95;;;6.60;;
18752;SDS011;9505;50.882;5.350;2022-10-31T16:03:28;69.50;;;9.25;;
18752;SDS011;9505;50.882;5.350;2022-10-31T16:05:57;58.72;;;7.25;;
18752;SDS011;9505;50.882;5.350;2022-10-31T16:08:25;40.70;;;5.35;;
18752;SDS011;9505;50.882;5.350;2022-10-31T16:13:39;28.48;;;4.60;;
18752;SDS011;9505;50.882;5.350;2022-10-31T16:16:16;57.67;;;7.40;;
18752;SDS011;9505;50.882;5.350;2022-10-31T16:18:42;49.67;;;7.38;;
18752;SDS011;9505;50.882;5.350;2022-10-31T16:21:08;25.00;;;4.88;;
18752;SDS011;9505;50.882;5.350;2022-10-31T16:23:35;20.65;;;4.30;;
18752;SDS011;9505;50.882;5.350;2022-10-31T16:26:06;46.53;;;7.40;;
18752;SDS011;9505;50.882;5.350;2022-10-31T16:28:32;57.38;;;8.23;;
18752;SDS011;9505;50.882;5.350;2022-10-31T16:30:59;62.60;;;8.98;;
18752;SDS011;9505;50.882;5.350;2022-10-31T16:33:34;38.28;;;7.63;;
18752;SDS011;9505;50.882;5.350;2022-10-31T16:38:55;29.40;;;5.63;;
18752;SDS011;9505;50.882;5.350;2022-10-31T16:41:24;65.13;;;9.10;;
18752;SDS011;9505;50.882;5.350;2022-10-31T16:43:51;63.15;;;8.57;;
18752;SDS011;9505;50.882;5.350;2022-10-31T16:46:24;66.28;;;9.27;;
18752;SDS011;9505;50.882;5.350;2022-10-31T16:48:52;77.15;;;9.70;;
18752;SDS011;9505;50.882;5.350;2022-10-31T16:51:18;28.83;;;5.05;;
18752;SDS011;9505;50.882;5.350;2022-10-31T16:53:44;27.52;;;4.55;;
18752;SDS011;9505;50.882;5.350;2022-10-31T16:56:24;42.97;;;6.35;;
18752;SDS011;9505;50.882;5.350;2022-10-31T16:58:54;35.08;;;6.47;;
18752;SDS011;9505;50.882;5.350;2022-10-31T17:01:20;61.33;;;11.38;;
18752;SDS011;9505;50.882;5.350;2022-10-31T17:03:46;65.40;;;11.35;;
18752;SDS011;9505;50.882;5.350;2022-10-31T17:06:12;82.30;;;14.50;;
18752;SDS011;9505;50.882;5.350;2022-10-31T17:08:38;26.30;;;6.78;;
18752;SDS011;9505;50.882;5.350;2022-10-31T17:11:04;26.50;;;5.63;;
18752;SDS011;9505;50.882;5.350;2022-10-31T17:13:33;39.38;;;6.97;;
18752;SDS011;9505;50.882;5.350;2022-10-31T17:15:59;57.55;;;8.48;;
18752;SDS011;9505;50.882;5.350;2022-10-31T17:18:28;41.55;;;7.05;;
18752;SDS011;9505;50.882;5.350;2022-10-31T17:20:55;30.88;;;5.45;;
18752;SDS011;9505;50.882;5.350;2022-10-31T17:23:23;33.58;;;5.63;;
18752;SDS011;9505;50.882;5.350;2022-10-31T17:25:49;23.45;;;5.07;;
18752;SDS011;9505;50.882;5.350;2022-10-31T17:28:14;27.23;;;7.90;;
18752;SDS011;9505;50.882;5.350;2022-10-31T17:30:40;33.95;;;7.55;;
18752;SDS011;9505;50.882;5.350;2022-10-31T17:33:09;31.52;;;7.93;;
18752;SDS011;9505;50.882;5.350;2022-10-31T17:35:36;44.17;;;7.82;;
18752;SDS011;9505;50.882;5.350;2022-10-31T17:38:02;29.60;;;7.28;;
18752;SDS011;9505;50.882;5.350;2022-10-31T17:40:29;27.45;;;7.07;;
18752;SDS011;9505;50.882;5.350;2022-10-31T17:42:55;33.08;;;5.85;;